Darbhanga Airport

Jump to: basic info | weather | runways | comments

Related pages: nearby airports | nearby navaids | notams | map

Basic information (top)

Codes: VE89
Location: lon 26.192801, lat 85.916901, elev 156 ft / 48 m msl
Status: small_airport

Weather (top)

Current conditions for Lok Nayak Jayaprakash Airport 58nm (107km) SW (rec'd 2015/01/29 11:50Z):

VEPT 291150Z 28004KT 1800 BR SCT100 18/15 Q1015 NOSIG

Airport forecast for Lok Nayak Jayaprakash Airport 58nm (107km) SW (rec'd 2015/01/27 12:00Z):

TAF VEPT 270900Z 2712/2818 27003KT 1500 BR SCT020 BKN090 
      BECMG 2716/2718 00000KT 1200 BR 
      BECMG 2723/2724 0800 FG 
      BECMG 2802/2803 1200 BR 
      BECMG 2805/2807 27004KT 1500 BR 
      BECMG 2808/2810 1800 BR 
      BECMG 2815/2817 1200 BR

Runways (top)

10/28: 9,000 x 150 ft (2,743 x 46 m) — paved — not lighted

Latest comments (top)

re: Darbhanga Airport: Sir...i requested to bihar government ... [read]

Arrange Domestic Flight Delhi to Darbhanga: Dear Sir I am working in Abudhabi ... [read]

Requested all the concern person to start Darbhanga Airport: Dear Sir, as you know most of the ... [read]

Darbhanga Airport: Dear Sir, Kindly requested to Please, ... [read]

START DARBHANGA AIR PORT: I REQUESTE TO CENTRAL AND BIHAR ... [read]

See all 25 comments for Darbhanga Airport

More... (top)

See also NOTAMs and nearby airports and navaids, or visit the Darbhanga Airport page at the main OurAirports website..